createdAt,value
2023-04-11T00:02:40.948Z,38.72
2023-04-11T00:05:42.924Z,38.58
2023-04-11T00:08:44.596Z,38.94
2023-04-11T00:11:46.210Z,39.00
2023-04-11T00:14:49.074Z,39.59
2023-04-11T00:17:50.969Z,39.93
2023-04-11T00:20:52.547Z,39.87
2023-04-11T00:23:54.449Z,39.79
2023-04-11T00:26:56.912Z,39.89
2023-04-11T00:29:58.399Z,39.70
2023-04-11T00:32:59.884Z,40.38
2023-04-11T00:36:01.489Z,39.88
2023-04-11T00:39:03.788Z,40.85
2023-04-11T00:42:07.170Z,40.62
2023-04-11T00:45:09.287Z,40.98
2023-04-11T00:48:11.037Z,40.80
2023-04-11T00:51:12.861Z,41.19
2023-04-11T00:54:14.337Z,41.19
2023-04-11T00:57:16.145Z,41.02
2023-04-11T01:00:17.691Z,41.42
2023-04-11T01:03:19.604Z,41.77
2023-04-11T01:06:23.656Z,42.10
2023-04-11T01:09:28.597Z,43.31
2023-04-11T01:12:30.752Z,43.03
2023-04-11T01:15:32.395Z,43.18
2023-04-11T01:18:34.139Z,43.07
2023-04-11T01:21:37.779Z,43.52
2023-04-11T01:24:39.293Z,43.90
2023-04-11T01:27:42.293Z,45.49
2023-04-11T01:30:43.892Z,46.47
2023-04-11T01:33:45.478Z,47.17
2023-04-11T01:36:47.654Z,48.35
2023-04-11T01:39:49.204Z,50.64
2023-04-11T01:42:51.861Z,54.33
2023-04-11T01:45:55.821Z,57.49
2023-04-11T01:48:58.589Z,62.34
2023-04-11T01:52:00.627Z,64.33
2023-04-11T01:55:02.175Z,63.87
2023-04-11T01:58:03.916Z,65.03
2023-04-11T02:01:05.655Z,65.08
2023-04-11T02:04:07.300Z,65.38
2023-04-11T02:07:08.825Z,65.02
2023-04-11T02:10:10.630Z,64.88
2023-04-11T02:13:12.127Z,64.73
2023-04-11T02:16:15.008Z,65.02
2023-04-11T02:19:16.884Z,64.88
2023-04-11T02:22:18.418Z,64.47
2023-04-11T02:25:21.346Z,64.97
2023-04-11T02:28:22.793Z,65.63
2023-04-11T02:31:27.406Z,65.89
2023-04-11T02:34:28.927Z,66.12
2023-04-11T02:37:30.916Z,66.14
2023-04-11T02:40:32.416Z,65.66
2023-04-11T02:43:34.161Z,65.34
2023-04-11T02:46:35.732Z,65.04
2023-04-11T02:49:41.235Z,64.30
2023-04-11T02:52:47.234Z,63.89
2023-04-11T02:55:50.484Z,63.68
2023-04-11T02:58:55.036Z,63.14
2023-04-11T03:01:59.957Z,63.03
2023-04-11T03:05:05.155Z,62.89
2023-04-11T03:08:09.929Z,62.01
2023-04-11T03:11:15.332Z,62.06
2023-04-11T03:14:17.356Z,61.23
2023-04-11T03:17:19.063Z,61.27
2023-04-11T03:20:20.712Z,60.84
2023-04-11T03:23:26.790Z,60.56
2023-04-11T03:26:28.389Z,60.42
2023-04-11T03:29:33.986Z,59.82
2023-04-11T03:32:43.321Z,60.09
2023-04-11T03:35:44.874Z,59.75
2023-04-11T03:38:46.356Z,59.24
2023-04-11T03:41:48.789Z,59.06
2023-04-11T03:44:50.381Z,58.96
2023-04-11T03:47:52.072Z,58.77
2023-04-11T03:50:57.025Z,58.96
2023-04-11T03:54:07.585Z,58.47
2023-04-11T03:57:13.437Z,57.79
2023-04-11T04:00:15.115Z,57.66
2023-04-11T04:03:16.821Z,57.36
2023-04-11T04:06:19.573Z,57.32
2023-04-11T04:09:24.014Z,57.06
2023-04-11T04:12:29.593Z,56.87
2023-04-11T04:15:45.600Z,56.80
2023-04-11T04:18:48.803Z,56.81
2023-04-11T04:21:50.384Z,56.72
2023-04-11T04:24:53.232Z,56.64
2023-04-11T04:27:58.211Z,56.16
2023-04-11T04:31:02.191Z,56.00
2023-04-11T04:34:09.868Z,56.00
2023-04-11T04:37:23.155Z,55.71
2023-04-11T04:40:31.747Z,55.48
2023-04-11T04:43:37.957Z,55.27
2023-04-11T04:46:59.662Z,55.45
2023-04-11T04:50:03.645Z,55.08
2023-04-11T04:53:07.161Z,55.45
2023-04-11T04:56:08.988Z,55.45
2023-04-11T04:59:16.141Z,56.61
2023-04-11T05:02:22.596Z,57.35
2023-04-11T05:05:24.978Z,58.91
2023-04-11T05:08:27.117Z,60.16
2023-04-11T05:11:31.916Z,61.07
2023-04-11T05:14:33.570Z,62.06
2023-04-11T05:17:36.102Z,63.28
2023-04-11T05:20:38.089Z,63.35
2023-04-11T05:23:40.312Z,63.95
2023-04-11T05:26:41.982Z,63.67
2023-04-11T05:29:45.832Z,63.41
2023-04-11T05:32:49.368Z,63.84
2023-04-11T05:35:51.827Z,63.87
2023-04-11T05:38:53.316Z,63.58
2023-04-11T05:41:55.104Z,63.44
2023-04-11T05:44:56.539Z,63.46
2023-04-11T05:47:58.229Z,63.60
2023-04-11T05:50:59.895Z,63.44
2023-04-11T05:54:01.352Z,63.38
2023-04-11T05:57:03.434Z,63.07
2023-04-11T06:00:16.852Z,62.79
2023-04-11T06:03:18.514Z,63.25
2023-04-11T06:06:20.100Z,62.93
2023-04-11T06:09:21.666Z,62.87
2023-04-11T06:12:23.117Z,62.95
2023-04-11T06:15:26.676Z,62.57
2023-04-11T06:18:28.193Z,62.36
2023-04-11T06:21:29.662Z,62.84
2023-04-11T06:24:36.069Z,63.11
2023-04-11T06:27:37.567Z,63.33
2023-04-11T06:30:39.052Z,63.37
2023-04-11T06:33:40.564Z,62.99
2023-04-11T06:36:42.668Z,63.18
2023-04-11T06:39:44.325Z,63.16
2023-04-11T06:42:47.002Z,63.47
2023-04-11T06:45:49.720Z,63.55
2023-04-11T06:48:51.209Z,63.01
2023-04-11T06:51:54.103Z,63.24
2023-04-11T06:54:55.831Z,63.38
2023-04-11T06:57:57.341Z,63.25
2023-04-11T07:00:58.792Z,62.89
2023-04-11T07:04:00.743Z,62.72
2023-04-11T07:07:02.456Z,62.65
2023-04-11T07:10:05.078Z,62.45
2023-04-11T07:13:06.501Z,62.39
2023-04-11T07:16:08.500Z,62.24
2023-04-11T07:19:10.069Z,62.16
2023-04-11T07:22:11.515Z,62.02
2023-04-11T07:25:13.212Z,61.73
2023-04-11T07:28:14.699Z,61.57
2023-04-11T07:31:17.997Z,61.49
2023-04-11T07:34:19.541Z,61.64
2023-04-11T07:37:21.556Z,61.17
2023-04-11T07:40:23.088Z,61.12
2023-04-11T07:43:28.609Z,60.86
2023-04-11T07:46:30.230Z,60.96
2023-04-11T07:49:31.710Z,60.47
2023-04-11T07:52:33.142Z,60.18
2023-04-11T07:55:34.621Z,59.63
2023-04-11T07:58:36.098Z,59.94
2023-04-11T08:01:37.663Z,59.96
2023-04-11T08:04:39.351Z,59.12
2023-04-11T08:07:41.766Z,58.30
2023-04-11T08:10:43.312Z,58.04
2023-04-11T08:13:45.181Z,57.34
2023-04-11T08:16:46.954Z,56.70
2023-04-11T08:19:48.416Z,56.22
2023-04-11T08:22:50.170Z,55.69
2023-04-11T08:25:51.675Z,55.34
2023-04-11T08:28:53.127Z,55.10
2023-04-11T08:31:54.579Z,54.31
2023-04-11T08:34:56.084Z,53.79
2023-04-11T08:37:57.559Z,53.41
2023-04-11T08:40:59.095Z,53.23
2023-04-11T08:44:00.774Z,52.46
2023-04-11T08:47:02.692Z,52.47
2023-04-11T08:50:08.214Z,52.43
2023-04-11T08:53:10.584Z,52.00
2023-04-11T08:56:18.210Z,51.20
2023-04-11T08:59:19.670Z,50.99
2023-04-11T09:02:21.873Z,50.64
2023-04-11T09:05:28.087Z,49.86
2023-04-11T09:08:38.120Z,50.14
2023-04-11T09:11:53.248Z,49.70
2023-04-11T09:14:54.785Z,49.48
2023-04-11T09:18:00.375Z,49.73
2023-04-11T09:21:06.004Z,48.65
2023-04-11T09:24:17.956Z,48.32
2023-04-11T09:27:24.275Z,47.84
2023-04-11T09:30:26.706Z,46.86
2023-04-11T09:33:31.680Z,46.26
2023-04-11T09:36:33.260Z,46.16
2023-04-11T09:39:34.883Z,45.51
2023-04-11T09:42:36.464Z,46.42
2023-04-11T09:45:47.817Z,46.54
2023-04-11T09:48:54.848Z,46.03
2023-04-11T09:51:57.725Z,45.16
2023-04-11T09:55:00.645Z,45.33
2023-04-11T09:58:04.795Z,45.65
2023-04-11T10:01:08.897Z,45.08
2023-04-11T10:04:13.772Z,42.68
2023-04-11T10:07:18.461Z,44.10
2023-04-11T10:10:23.262Z,43.44
2023-04-11T10:13:44.061Z,43.58
2023-04-11T10:17:12.906Z,43.51
2023-04-11T10:20:43.476Z,43.19
2023-04-11T10:24:21.334Z,42.87
2023-04-11T10:27:50.654Z,42.76
2023-04-11T10:30:58.833Z,43.12
2023-04-11T10:34:16.802Z,43.04
2023-04-11T10:37:19.194Z,43.04
2023-04-11T10:40:21.087Z,42.53
2023-04-11T10:43:22.704Z,41.70
2023-04-11T10:46:26.531Z,42.23
2023-04-11T10:49:39.198Z,41.72
2023-04-11T10:52:41.685Z,40.72
2023-04-11T10:55:43.940Z,40.73
2023-04-11T10:58:45.461Z,40.61
2023-04-11T11:01:54.792Z,40.85
2023-04-11T11:04:56.360Z,41.08
2023-04-11T11:07:58.005Z,41.70
2023-04-11T11:11:10.633Z,41.14
2023-04-11T11:14:28.501Z,41.53
2023-04-11T11:17:29.992Z,41.24
2023-04-11T11:20:31.477Z,40.88
2023-04-11T11:23:34.364Z,40.32
2023-04-11T11:26:40.159Z,40.08
2023-04-11T11:29:41.707Z,39.61
2023-04-11T11:32:43.262Z,40.30
2023-04-11T11:36:00.555Z,39.46
2023-04-11T11:39:05.327Z,40.20
2023-04-11T11:42:06.908Z,40.27
2023-04-11T11:45:18.991Z,40.33
2023-04-11T11:48:24.587Z,40.22
2023-04-11T11:51:26.662Z,40.57
2023-04-11T11:54:28.128Z,40.19
2023-04-11T11:57:29.670Z,40.56
2023-04-11T12:00:39.350Z,40.59
2023-04-11T12:03:41.100Z,40.63
2023-04-11T12:06:45.759Z,40.38
2023-04-11T12:09:50.989Z,40.30
2023-04-11T12:12:53.582Z,39.45
2023-04-11T12:15:57.492Z,39.37
2023-04-11T12:19:00.665Z,39.35
2023-04-11T12:22:02.153Z,39.42
2023-04-11T12:25:07.834Z,39.46
2023-04-11T12:28:10.002Z,39.19
2023-04-11T12:31:12.408Z,39.05
2023-04-11T12:34:13.880Z,38.50
2023-04-11T12:37:15.304Z,38.42
2023-04-11T12:40:17.929Z,38.13
2023-04-11T12:43:19.397Z,39.01
2023-04-11T12:46:20.881Z,39.24
2023-04-11T12:49:22.345Z,38.64
2023-04-11T12:52:25.287Z,38.06
2023-04-11T12:55:26.918Z,37.71
2023-04-11T12:58:28.743Z,37.73
2023-04-11T13:01:30.590Z,37.88
2023-04-11T13:04:32.157Z,37.41
2023-04-11T13:07:34.940Z,37.25
2023-04-11T13:10:36.481Z,37.36
2023-04-11T13:13:37.998Z,38.10
2023-04-11T13:16:39.480Z,38.08
2023-04-11T13:19:41.114Z,37.51
2023-04-11T13:22:43.069Z,37.36
2023-04-11T13:25:44.594Z,37.71
2023-04-11T13:28:46.397Z,37.65
2023-04-11T13:31:48.028Z,37.14
2023-04-11T13:34:49.511Z,36.97
2023-04-11T13:37:51.970Z,36.41
2023-04-11T13:40:53.530Z,35.86
2023-04-11T13:43:54.928Z,35.40
2023-04-11T13:46:56.716Z,35.42
2023-04-11T13:49:58.227Z,35.31
2023-04-11T13:52:59.776Z,34.82
2023-04-11T13:56:03.056Z,34.67
2023-04-11T13:59:04.582Z,34.81
2023-04-11T14:02:06.163Z,35.21
2023-04-11T14:05:09.200Z,35.27
2023-04-11T14:08:10.663Z,35.54
2023-04-11T14:11:12.390Z,34.82
2023-04-11T14:14:13.939Z,34.79
2023-04-11T14:17:15.933Z,34.67
2023-04-11T14:20:17.530Z,34.47
2023-04-11T14:23:20.643Z,34.21
2023-04-11T14:26:22.096Z,34.21
2023-04-11T14:29:23.707Z,34.45
2023-04-11T14:32:25.398Z,34.92
2023-04-11T14:35:27.069Z,34.38
2023-04-11T14:38:28.605Z,33.99
2023-04-11T14:41:30.136Z,33.87
2023-04-11T14:44:31.579Z,34.12
2023-04-11T14:47:33.114Z,33.59
2023-04-11T14:50:34.656Z,33.22
2023-04-11T14:53:36.793Z,32.98
2023-04-11T14:56:38.442Z,32.15
2023-04-11T14:59:39.898Z,32.22
2023-04-11T15:02:41.387Z,32.16
2023-04-11T15:05:42.934Z,31.90
2023-04-11T15:08:44.561Z,32.08
2023-04-11T15:11:47.124Z,32.40
2023-04-11T15:14:48.933Z,32.80
2023-04-11T15:18:19.302Z,31.69
2023-04-11T15:21:20.898Z,32.15
2023-04-11T15:24:22.459Z,32.08
2023-04-11T15:27:23.943Z,31.75
2023-04-11T15:30:25.622Z,32.08
2023-04-11T15:33:27.566Z,31.81
2023-04-11T15:36:29.172Z,31.71
2023-04-11T15:39:30.933Z,31.60
2023-04-11T15:42:35.165Z,31.52
2023-04-11T15:45:38.204Z,31.54
2023-04-11T15:48:39.672Z,31.09
2023-04-11T15:51:41.287Z,30.25
2023-04-11T15:54:43.368Z,29.79
2023-04-11T15:57:44.767Z,29.38
2023-04-11T16:00:46.910Z,28.98
2023-04-11T16:03:49.285Z,28.71
2023-04-11T16:06:51.031Z,27.88
2023-04-11T16:09:52.528Z,28.16
2023-04-11T16:12:53.980Z,28.09
2023-04-11T16:15:55.616Z,28.49
2023-04-11T16:18:57.191Z,29.30
2023-04-11T16:21:58.812Z,30.25
2023-04-11T16:25:03.319Z,30.73
2023-04-11T16:28:04.857Z,31.49
2023-04-11T16:31:06.756Z,31.96
2023-04-11T16:34:08.269Z,32.52
2023-04-11T16:37:09.721Z,33.09
2023-04-11T16:40:11.506Z,33.13
2023-04-11T16:43:13.353Z,33.79
2023-04-11T16:46:15.914Z,34.24
2023-04-11T16:49:18.235Z,34.41
2023-04-11T16:52:19.670Z,34.85
2023-04-11T16:55:21.181Z,34.98
2023-04-11T16:58:23.118Z,34.96
2023-04-11T17:01:24.665Z,35.02
2023-04-11T17:04:26.238Z,35.27
2023-04-11T17:07:28.425Z,35.45
2023-04-11T17:10:29.897Z,35.65
2023-04-11T17:13:31.781Z,35.72
2023-04-11T17:16:33.316Z,35.88
2023-04-11T17:19:34.862Z,36.00
2023-04-11T17:22:36.825Z,36.03
2023-04-11T17:25:38.361Z,36.28
2023-04-11T17:28:40.816Z,36.54
2023-04-11T17:31:42.270Z,36.62
2023-04-11T17:34:43.790Z,36.50
2023-04-11T17:37:45.208Z,36.57
2023-04-11T17:40:46.679Z,36.74
2023-04-11T17:43:48.130Z,36.78
2023-04-11T17:46:49.700Z,37.20
2023-04-11T17:49:51.291Z,37.34
2023-04-11T17:52:53.108Z,36.87
2023-04-11T17:55:54.627Z,37.20
2023-04-11T17:58:56.116Z,37.21
2023-04-11T18:01:57.680Z,37.22
2023-04-11T18:05:00.867Z,37.79
2023-04-11T18:08:03.653Z,38.17
2023-04-11T18:11:05.347Z,38.42
2023-04-11T18:14:06.980Z,38.37
2023-04-11T18:17:08.436Z,38.92
2023-04-11T18:20:11.986Z,39.77
2023-04-11T18:23:13.488Z,40.33
2023-04-11T18:26:14.974Z,40.58
2023-04-11T18:29:16.521Z,41.12
2023-04-11T18:32:18.007Z,41.99
2023-04-11T18:35:20.246Z,42.47
2023-04-11T18:38:22.233Z,43.47
2023-04-11T18:41:24.863Z,43.90
2023-04-11T18:44:26.379Z,43.83
2023-04-11T18:47:27.956Z,44.25
2023-04-11T18:50:30.641Z,44.45
2023-04-11T18:53:32.406Z,44.92
2023-04-11T18:56:36.402Z,45.39
2023-04-11T18:59:43.605Z,45.51
2023-04-11T19:02:46.753Z,46.45
2023-04-11T19:05:49.344Z,46.04
2023-04-11T19:08:52.039Z,46.28
2023-04-11T19:11:53.984Z,46.16
2023-04-11T19:14:55.865Z,46.49
2023-04-11T19:17:57.740Z,46.44
2023-04-11T19:20:59.366Z,46.79
2023-04-11T19:24:00.853Z,46.67
2023-04-11T19:27:02.443Z,46.81
2023-04-11T19:30:04.321Z,47.06
2023-04-11T19:33:05.835Z,47.07
2023-04-11T19:36:07.487Z,47.17
2023-04-11T19:39:10.542Z,46.83
2023-04-11T19:42:12.504Z,46.86
2023-04-11T19:45:14.116Z,47.19
2023-04-11T19:48:16.243Z,46.76
2023-04-11T19:51:17.911Z,46.87
2023-04-11T19:54:19.469Z,47.19
2023-04-11T19:57:22.122Z,47.11
2023-04-11T20:00:25.051Z,47.31
2023-04-11T20:03:27.616Z,47.38
2023-04-11T20:06:29.424Z,47.19
2023-04-11T20:09:31.001Z,47.75
2023-04-11T20:12:32.454Z,47.66
2023-04-11T20:15:33.918Z,47.56
2023-04-11T20:18:35.450Z,47.61
2023-04-11T20:21:37.092Z,47.84
2023-04-11T20:24:38.713Z,47.93
2023-04-11T20:27:41.274Z,47.97
2023-04-11T20:30:42.906Z,48.40
2023-04-11T20:33:47.524Z,48.28
2023-04-11T20:36:49.046Z,48.71
2023-04-11T20:39:51.554Z,48.82
2023-04-11T20:42:53.213Z,49.03
2023-04-11T20:45:55.869Z,49.08
2023-04-11T20:48:57.427Z,48.81
2023-04-11T20:52:00.021Z,49.08
2023-04-11T20:55:02.525Z,49.78
2023-04-11T20:58:08.271Z,49.71
2023-04-11T21:01:09.811Z,49.89
2023-04-11T21:04:11.651Z,49.90
2023-04-11T21:07:13.214Z,49.81
2023-04-11T21:10:15.620Z,49.78
2023-04-11T21:13:17.092Z,49.91
2023-04-11T21:16:18.641Z,50.38
2023-04-11T21:19:20.235Z,50.25
2023-04-11T21:22:21.674Z,50.95
2023-04-11T21:25:23.944Z,51.05
2023-04-11T21:28:25.789Z,51.13
2023-04-11T21:31:27.275Z,51.54
2023-04-11T21:34:28.756Z,51.63
2023-04-11T21:37:30.334Z,52.05
2023-04-11T21:40:31.986Z,52.13
2023-04-11T21:43:33.407Z,52.86
2023-04-11T21:46:34.945Z,53.43
2023-04-11T21:49:36.519Z,53.57
2023-04-11T21:52:38.053Z,53.90
2023-04-11T21:55:44.554Z,54.46
2023-04-11T21:58:46.378Z,54.57
2023-04-11T22:01:48.225Z,54.89
2023-04-11T22:05:04.924Z,54.72
2023-04-11T22:08:13.178Z,54.76
2023-04-11T22:11:15.073Z,54.33
2023-04-11T22:14:18.055Z,54.72
2023-04-11T22:17:19.562Z,55.11
2023-04-11T22:20:21.082Z,55.37
2023-04-11T22:23:24.934Z,55.49
2023-04-11T22:26:34.186Z,56.14
2023-04-11T22:29:35.795Z,56.88
2023-04-11T22:32:37.947Z,57.08
2023-04-11T22:35:40.247Z,57.21
2023-04-11T22:38:41.701Z,57.54
2023-04-11T22:41:47.699Z,57.38
2023-04-11T22:44:49.247Z,58.06
2023-04-11T22:47:54.278Z,58.13
2023-04-11T22:50:59.099Z,58.33
2023-04-11T22:54:01.058Z,58.31
2023-04-11T22:57:02.573Z,58.61
2023-04-11T23:00:07.772Z,58.61
2023-04-11T23:03:09.951Z,58.74
2023-04-11T23:06:11.667Z,58.61
2023-04-11T23:09:14.958Z,58.96
2023-04-11T23:12:16.974Z,58.82
2023-04-11T23:15:19.282Z,59.05
2023-04-11T23:18:20.750Z,59.73
2023-04-11T23:21:22.214Z,59.47
2023-04-11T23:24:24.050Z,59.62
2023-04-11T23:27:25.570Z,59.82
2023-04-11T23:30:27.155Z,59.90
2023-04-11T23:33:28.597Z,59.29
2023-04-11T23:36:30.136Z,59.18
2023-04-11T23:39:31.734Z,58.91
2023-04-11T23:42:33.208Z,58.95
2023-04-11T23:45:34.657Z,58.69
2023-04-11T23:48:36.337Z,58.80
2023-04-11T23:51:37.769Z,58.46
2023-04-11T23:54:39.288Z,58.65
2023-04-11T23:57:40.919Z,58.81
